Time;durP1;ratioP1;P1;durP2;ratioP2;P2;SDS_P1;SDS_P2;PMS_P1;PMS_P2;Temp;Humidity;BMP_temperature;BMP_pressure;BME280_temperature;BME280_humidity;BME280_pressure;Samples;Min_cycle;Max_cycle;Signal;HPM_P1;HPM_P2
2021/05/18 00:01:11;;;;;;;16.25;3.03;;;12.20;99.90;;;;;;4992675;28;20038;-79
2021/05/18 00:03:36;;;;;;;15.68;2.45;;;12.20;99.90;;;;;;4986366;28;20027;-79
2021/05/18 00:06:04;;;;;;;24.08;2.63;;;12.30;99.90;;;;;;4954034;28;20023;-79
2021/05/18 00:08:32;;;;;;;30.10;3.33;;;12.30;99.90;;;;;;4976272;28;20030;-79
2021/05/18 00:13:49;;;;;;;20.70;2.53;;;12.20;99.90;;;;;;4976314;28;20033;-79
2021/05/18 00:16:15;;;;;;;19.63;2.38;;;12.30;99.90;;;;;;4989222;28;20370;-79
2021/05/18 00:18:41;;;;;;;21.85;2.92;;;12.30;99.90;;;;;;4980913;28;20038;-79
2021/05/18 00:21:07;;;;;;;22.38;2.47;;;12.30;99.90;;;;;;4986517;28;20379;-79
2021/05/18 00:23:35;;;;;;;23.20;3.42;;;12.30;99.90;;;;;;4986829;28;20051;-79
2021/05/18 00:26:02;;;;;;;18.58;2.28;;;12.30;99.90;;;;;;4988750;28;20105;-79
2021/05/18 00:28:28;;;;;;;16.15;2.15;;;12.30;99.90;;;;;;4976340;28;20037;-79
2021/05/18 00:30:53;;;;;;;20.77;2.72;;;12.30;99.90;;;;;;4991610;28;20022;-79
2021/05/18 00:33:21;;;;;;;21.95;2.58;;;12.30;99.90;;;;;;4995470;28;20113;-79
2021/05/18 00:35:48;;;;;;;28.08;3.20;;;12.30;99.90;;;;;;4978793;28;20580;-79
2021/05/18 00:38:16;;;;;;;24.50;2.65;;;12.20;99.90;;;;;;4982086;28;20528;-79
2021/05/18 00:40:43;;;;;;;27.05;2.53;;;12.20;99.90;;;;;;4975481;28;20031;-77
2021/05/18 00:43:11;;;;;;;24.23;2.67;;;12.20;99.90;;;;;;4993120;28;20026;-79
2021/05/18 00:45:42;;;;;;;22.02;2.65;;;12.20;99.90;;;;;;4980120;28;20069;-79
2021/05/18 00:48:09;;;;;;;20.48;2.40;;;12.20;99.90;;;;;;4973828;28;20138;-79
2021/05/18 00:50:37;;;;;;;20.75;1.95;;;12.20;99.90;;;;;;4954700;28;20023;-79
2021/05/18 00:53:04;;;;;;;22.92;2.72;;;12.10;99.90;;;;;;4963054;28;20023;-78
2021/05/18 00:55:42;;;;;;;16.63;2.47;;;12.10;99.90;;;;;;4980460;28;20030;-79
2021/05/18 00:58:30;;;;;;;27.73;2.53;;;12.10;99.90;;;;;;4986612;28;20030;-79
2021/05/18 01:01:06;;;;;;;18.70;2.60;;;12.10;99.90;;;;;;4976846;28;20475;-79
2021/05/18 01:03:34;;;;;;;18.20;2.60;;;12.10;99.90;;;;;;4981676;28;20058;-79
2021/05/18 01:06:21;;;;;;;20.95;2.35;;;12.10;99.90;;;;;;4974535;28;20026;-79
2021/05/18 01:09:11;;;;;;;21.88;2.85;;;12.10;99.90;;;;;;4970999;28;20019;-79
2021/05/18 01:11:45;;;;;;;22.98;2.33;;;12.10;99.90;;;;;;4967737;28;20494;-79
2021/05/18 01:14:15;;;;;;;20.70;2.38;;;12.20;99.90;;;;;;4975415;28;20109;-79
2021/05/18 01:16:44;;;;;;;28.35;2.92;;;12.10;99.90;;;;;;4980543;28;20026;-79
2021/05/18 01:19:12;;;;;;;26.83;2.92;;;12.20;99.90;;;;;;4983619;28;20421;-79
2021/05/18 01:21:38;;;;;;;28.15;3.05;;;12.20;99.90;;;;;;4975846;28;20022;-79
2021/05/18 01:24:06;;;;;;;20.38;2.38;;;12.20;99.90;;;;;;4983550;28;20018;-79
2021/05/18 01:26:33;;;;;;;21.45;2.63;;;12.20;99.90;;;;;;4993840;28;20022;-79
2021/05/18 01:28:59;;;;;;;22.75;2.85;;;12.20;99.90;;;;;;4994515;28;20027;-79
2021/05/18 01:31:26;;;;;;;31.58;3.42;;;12.20;99.90;;;;;;4981297;28;20035;-77
2021/05/18 01:33:54;;;;;;;29.50;3.28;;;12.20;99.90;;;;;;4984394;28;20026;-79
2021/05/18 01:36:22;;;;;;;31.52;3.45;;;12.20;99.90;;;;;;4974414;28;20035;-79
2021/05/18 01:44:08;;;;;;;15.13;2.30;;;12.20;99.90;;;;;;4983829;28;20044;-79
2021/05/18 01:46:34;;;;;;;22.10;2.80;;;12.20;99.90;;;;;;4974842;28;20375;-79
2021/05/18 01:49:05;;;;;;;16.02;2.20;;;12.20;99.90;;;;;;4990888;28;20106;-79
2021/05/18 01:51:38;;;;;;;19.55;2.25;;;12.20;99.90;;;;;;4982769;28;20018;-79
2021/05/18 01:54:12;;;;;;;15.07;2.38;;;12.20;99.90;;;;;;4957161;28;20034;-80
2021/05/18 01:56:54;;;;;;;26.73;2.15;;;12.20;99.90;;;;;;4974140;28;20030;-80
2021/05/18 01:59:23;;;;;;;12.90;2.08;;;12.20;99.90;;;;;;4966514;28;20031;-77
2021/05/18 02:01:51;;;;;;;18.08;2.45;;;12.20;99.90;;;;;;4980036;28;20455;-79
2021/05/18 02:04:42;;;;;;;24.55;2.78;;;12.20;99.90;;;;;;4980140;28;20086;-79
2021/05/18 02:07:14;;;;;;;23.23;2.30;;;12.20;99.90;;;;;;4983429;28;20026;-79
2021/05/18 02:09:39;;;;;;;23.75;2.50;;;12.20;99.90;;;;;;4975437;28;20502;-79
2021/05/18 02:12:06;;;;;;;30.15;2.38;;;12.20;99.90;;;;;;4990432;28;20057;-79
2021/05/18 02:14:34;;;;;;;19.55;2.33;;;12.20;99.90;;;;;;4980279;28;20038;-79
2021/05/18 02:17:08;;;;;;;19.08;2.95;;;12.10;99.90;;;;;;4983091;28;20049;-79
2021/05/18 02:25:01;;;;;;;21.73;2.97;;;12.10;99.90;;;;;;4973900;28;20030;-79
2021/05/18 02:27:29;;;;;;;19.38;2.55;;;12.10;99.90;;;;;;4973349;28;20027;-79
2021/05/18 02:29:56;;;;;;;18.50;2.47;;;12.00;99.90;;;;;;4973830;28;20121;-79
2021/05/18 02:32:23;;;;;;;20.80;2.60;;;12.00;99.90;;;;;;4970160;28;20117;-79
2021/05/18 02:34:49;;;;;;;17.42;2.30;;;12.00;99.90;;;;;;4984506;28;20042;-79
2021/05/18 02:37:15;;;;;;;24.17;3.22;;;12.00;99.90;;;;;;4987517;28;20038;-79
2021/05/18 02:39:40;;;;;;;18.70;2.83;;;12.00;99.90;;;;;;4975952;28;20097;-79
2021/05/18 02:42:06;;;;;;;21.42;2.35;;;12.00;99.90;;;;;;4985445;28;20037;-79
2021/05/18 02:44:46;;;;;;;14.43;2.40;;;11.90;99.90;;;;;;4980717;28;20482;-79
2021/05/18 02:49:57;;;;;;;16.77;2.42;;;12.00;99.90;;;;;;4988531;28;20053;-79
2021/05/18 02:52:26;;;;;;;21.75;2.85;;;12.00;99.90;;;;;;4983915;28;20030;-79
2021/05/18 02:54:54;;;;;;;26.67;3.38;;;12.10;99.90;;;;;;4992940;28;20076;-79
2021/05/18 02:57:32;;;;;;;21.48;2.60;;;12.10;99.90;;;;;;4973433;28;20034;-79
2021/05/18 03:00:11;;;;;;;27.80;2.83;;;12.10;99.90;;;;;;4981520;28;20485;-79
2021/05/18 03:02:38;;;;;;;34.78;3.00;;;12.10;99.90;;;;;;4973411;28;20023;-79
2021/05/18 03:05:04;;;;;;;22.67;2.40;;;12.10;99.90;;;;;;4972037;28;20026;-79
2021/05/18 03:07:30;;;;;;;15.30;2.67;;;12.10;99.90;;;;;;4973675;28;20034;-79
2021/05/18 03:09:56;;;;;;;25.58;3.00;;;12.10;99.90;;;;;;4973658;28;20023;-79
2021/05/18 03:12:21;;;;;;;25.17;2.85;;;12.10;99.90;;;;;;4972472;28;20026;-79
2021/05/18 03:14:47;;;;;;;21.33;2.13;;;12.10;99.90;;;;;;4980246;28;20034;-79
2021/05/18 03:17:13;;;;;;;22.63;3.40;;;12.10;99.90;;;;;;4973660;28;20043;-79
2021/05/18 03:19:39;;;;;;;26.75;3.10;;;12.10;99.90;;;;;;4986594;28;20027;-79
2021/05/18 03:22:04;;;;;;;28.30;3.15;;;12.20;99.90;;;;;;4973212;28;20035;-79
2021/05/18 03:24:30;;;;;;;20.60;3.05;;;12.20;99.90;;;;;;4973015;28;20030;-79
2021/05/18 03:26:56;;;;;;;21.10;2.85;;;12.20;99.90;;;;;;4971473;28;20022;-79
2021/05/18 03:29:24;;;;;;;23.73;2.80;;;12.20;99.90;;;;;;4973518;28;20130;-79
2021/05/18 03:34:37;;;;;;;22.55;2.47;;;12.30;99.90;;;;;;4980223;28;20101;-80
2021/05/18 03:37:21;;;;;;;31.00;3.55;;;12.30;99.90;;;;;;4972943;28;20101;-80
2021/05/18 03:39:49;;;;;;;17.27;2.92;;;12.30;99.90;;;;;;4982054;28;20391;-80
2021/05/18 03:42:29;;;;;;;17.33;3.08;;;12.20;99.90;;;;;;4984380;28;20022;-80
2021/05/18 03:53:12;;;;;;;16.85;2.50;;;11.80;99.90;;;;;;4996196;28;20137;-79
2021/05/18 04:17:16;;;;;;;27.88;3.85;;;11.30;99.90;;;;;;4976124;28;20085;-79
2021/05/18 04:19:49;;;;;;;23.90;4.13;;;11.30;99.90;;;;;;4976654;28;20379;-79
2021/05/18 04:38:57;;;;;;;26.52;5.10;;;11.20;99.90;;;;;;4983110;28;20057;-79
2021/05/18 04:52:25;;;;;;;22.95;4.03;;;11.20;99.90;;;;;;4985343;28;20470;-80
2021/05/18 05:00:14;;;;;;;31.45;4.65;;;11.20;99.90;;;;;;4978051;28;20069;-80
2021/05/18 05:08:04;;;;;;;25.88;4.15;;;11.20;99.90;;;;;;4975839;28;20046;-79
2021/05/18 05:15:42;;;;;;;35.53;5.15;;;11.30;99.90;;;;;;4984045;28;20121;-79
2021/05/18 05:18:11;;;;;;;31.05;4.40;;;11.40;99.90;;;;;;4979487;28;20115;-80
2021/05/18 05:20:36;;;;;;;23.92;4.03;;;11.40;99.90;;;;;;4975481;28;20398;-80
2021/05/18 05:23:03;;;;;;;27.02;4.30;;;11.40;99.90;;;;;;4975057;28;20023;-80
2021/05/18 05:25:29;;;;;;;27.45;3.75;;;11.40;99.90;;;;;;4985781;28;20018;-79
2021/05/18 05:27:55;;;;;;;20.58;3.80;;;11.40;99.90;;;;;;4989456;28;20498;-80
2021/05/18 05:30:21;;;;;;;28.77;3.92;;;11.50;99.90;;;;;;4979409;28;20114;-81
2021/05/18 05:32:46;;;;;;;29.52;3.67;;;11.50;99.90;;;;;;4996023;28;20541;-80
2021/05/18 05:35:12;;;;;;;24.40;3.95;;;11.60;99.90;;;;;;4980530;28;20029;-80
2021/05/18 05:37:38;;;;;;;24.80;3.83;;;11.60;99.90;;;;;;4990259;28;20070;-80
2021/05/18 05:40:08;;;;;;;30.25;3.42;;;11.60;99.90;;;;;;4982122;28;20030;-80
2021/05/18 05:42:33;;;;;;;18.40;2.83;;;11.50;99.90;;;;;;4986412;28;20027;-80
2021/05/18 05:45:00;;;;;;;22.80;2.85;;;11.60;99.90;;;;;;4992592;28;20057;-82
2021/05/18 05:47:25;;;;;;;24.02;3.13;;;11.60;99.90;;;;;;4983338;28;20133;-80
2021/05/18 05:49:53;;;;;;;24.42;3.20;;;11.70;99.90;;;;;;4988557;28;20046;-80
2021/05/18 05:52:21;;;;;;;37.67;4.70;;;11.70;99.90;;;;;;4982270;28;20030;-80
2021/05/18 05:54:48;;;;;;;19.30;4.00;;;11.80;99.90;;;;;;4964280;28;20043;-80
2021/05/18 05:57:14;;;;;;;23.35;4.30;;;11.90;99.90;;;;;;4982189;28;20031;-80
2021/05/18 05:59:40;;;;;;;28.23;4.28;;;12.00;99.90;;;;;;4957481;28;20031;-80
2021/05/18 06:02:05;;;;;;;20.50;3.28;;;12.10;99.90;;;;;;4978974;28;20026;-80
2021/05/18 06:04:32;;;;;;;17.13;3.95;;;12.10;99.90;;;;;;4972850;28;20035;-78
2021/05/18 06:06:58;;;;;;;17.27;3.40;;;12.00;99.90;;;;;;4983396;28;20105;-80
2021/05/18 06:09:26;;;;;;;13.40;3.30;;;12.00;99.90;;;;;;4970488;28;20034;-80
2021/05/18 06:42:02;;;;;;;15.23;3.20;;;12.20;99.90;;;;;;4972302;28;20042;-77
2021/05/18 06:49:40;;;;;;;23.35;3.55;;;12.30;99.90;;;;;;4974734;28;20055;-77
2021/05/18 06:52:06;;;;;;;28.20;3.28;;;12.40;99.90;;;;;;4973790;28;20034;-76
2021/05/18 06:54:32;;;;;;;28.52;3.58;;;12.50;99.90;;;;;;4974847;28;20101;-76
2021/05/18 06:57:02;;;;;;;14.60;2.55;;;12.60;99.90;;;;;;4987247;28;20034;-76
2021/05/18 07:01:57;;;;;;;18.58;2.10;;;13.00;99.90;;;;;;4981318;28;20038;-77
2021/05/18 07:04:24;;;;;;;20.00;2.47;;;13.30;99.90;;;;;;4974224;28;20033;-76
2021/05/18 07:09:18;;;;;;;19.92;2.55;;;13.70;99.90;;;;;;4969442;28;20492;-74
2021/05/18 07:11:43;;;;;;;21.38;2.65;;;13.80;99.90;;;;;;4971188;28;20039;-75
2021/05/18 07:14:09;;;;;;;20.70;2.83;;;13.90;99.90;;;;;;4971604;28;20062;-76
2021/05/18 07:16:36;;;;;;;19.33;2.28;;;14.10;99.90;;;;;;4968956;28;20045;-76
2021/05/18 07:19:02;;;;;;;22.42;2.78;;;14.10;99.90;;;;;;4978360;28;20035;-76
2021/05/18 07:21:28;;;;;;;28.20;3.40;;;14.10;99.90;;;;;;4975496;28;20038;-75
2021/05/18 07:23:54;;;;;;;31.13;3.30;;;14.10;99.90;;;;;;4975231;28;20097;-75
2021/05/18 07:26:20;;;;;;;20.75;2.97;;;14.10;99.90;;;;;;4979215;28;20034;-75
2021/05/18 07:28:46;;;;;;;19.70;2.53;;;14.10;99.90;;;;;;4975144;28;20498;-75
2021/05/18 07:31:11;;;;;;;19.58;3.00;;;14.20;99.90;;;;;;4974534;28;20034;-76
2021/05/18 07:33:37;;;;;;;16.58;2.60;;;14.20;99.90;;;;;;4984377;28;21533;-76
2021/05/18 07:36:10;;;;;;;15.65;2.22;;;14.20;99.90;;;;;;4977502;28;20502;-74
2021/05/18 07:38:42;;;;;;;18.95;2.45;;;14.20;99.90;;;;;;4975138;28;20043;-75
2021/05/18 07:41:08;;;;;;;17.20;2.00;;;14.20;99.90;;;;;;4976472;28;20161;-75
2021/05/18 07:43:35;;;;;;;19.48;2.50;;;14.30;99.90;;;;;;4978427;28;20058;-75
2021/05/18 07:46:03;;;;;;;22.85;2.03;;;14.40;99.90;;;;;;4976139;28;20027;-75
2021/05/18 07:48:39;;;;;;;18.58;1.95;;;14.40;99.90;;;;;;4982211;28;20378;-75
2021/05/18 07:59:21;;;;;;;19.85;2.78;;;15.10;99.90;;;;;;4976410;28;20060;-76
2021/05/18 08:07:17;;;;;;;17.77;2.22;;;16.80;99.50;;;;;;4978128;28;20081;-75
2021/05/18 08:09:50;;;;;;;16.27;2.22;;;17.80;97.40;;;;;;4975458;28;20514;-75
2021/05/18 08:12:16;;;;;;;17.33;2.08;;;17.40;97.40;;;;;;4977652;28;20572;-75
2021/05/18 08:14:49;;;;;;;16.38;2.17;;;16.50;98.30;;;;;;4977479;28;20054;-75
2021/05/18 08:17:25;;;;;;;25.52;2.83;;;15.80;99.90;;;;;;4983604;28;20054;-76
2021/05/18 08:22:56;;;;;;;18.52;2.72;;;15.20;99.90;;;;;;4973960;28;20089;-75
2021/05/18 10:35:52;;;;;;;11.45;1.63;;;14.40;99.90;;;;;;4926531;29;20032;-75
2021/05/18 10:38:25;;;;;;;8.95;1.50;;;14.20;99.90;;;;;;4924642;29;20043;-75
2021/05/18 10:40:53;;;;;;;;;;;14.10;99.90;;;;;;4913047;29;20458;-75
2021/05/18 10:43:21;;;;;;;9.07;1.13;;;13.80;99.90;;;;;;4929975;29;19930;-74
2021/05/18 10:45:53;;;;;;;14.65;1.85;;;13.60;99.90;;;;;;4925331;29;20089;-75
2021/05/18 10:48:32;;;;;;;9.27;1.90;;;13.30;99.90;;;;;;4914603;29;20036;-74
2021/05/18 10:50:58;;;;;;;8.95;1.42;;;13.10;99.90;;;;;;4921165;29;20439;-74
2021/05/18 10:53:28;;;;;;;9.55;1.90;;;13.00;99.90;;;;;;4958636;28;20050;-74
2021/05/18 10:56:08;;;;;;;15.65;1.65;;;13.00;99.90;;;;;;4977831;28;20041;-74
2021/05/18 10:58:34;;;;;;;8.73;1.13;;;12.80;99.90;;;;;;4971461;28;20034;-74
2021/05/18 11:01:04;;;;;;;12.90;1.85;;;12.70;99.90;;;;;;4974906;28;20089;-74
2021/05/18 11:03:39;;;;;;;8.35;1.50;;;12.70;99.90;;;;;;4975229;28;20026;-74
2021/05/18 11:06:08;;;;;;;8.88;1.30;;;12.70;99.90;;;;;;4979203;28;20142;-74
2021/05/18 11:08:35;;;;;;;9.75;1.52;;;12.80;99.90;;;;;;4985467;28;20058;-74
2021/05/18 11:11:01;;;;;;;7.20;1.60;;;12.90;99.90;;;;;;4963702;28;20027;-74
2021/05/18 11:13:28;;;;;;;6.93;1.38;;;13.00;99.90;;;;;;4982457;28;20101;-75
2021/05/18 11:15:54;;;;;;;11.75;1.80;;;13.10;99.90;;;;;;4976952;28;20446;-74
2021/05/18 11:18:19;;;;;;;8.27;1.70;;;13.10;99.90;;;;;;4979235;28;20080;-74
2021/05/18 11:20:56;;;;;;;8.23;1.55;;;13.20;99.90;;;;;;4976938;28;20038;-74
2021/05/18 11:23:29;;;;;;;15.02;1.70;;;13.30;99.90;;;;;;4990073;28;20469;-74
2021/05/18 11:26:04;;;;;;;8.85;1.83;;;13.30;99.90;;;;;;4974698;28;20030;-75
2021/05/18 11:28:37;;;;;;;9.23;1.42;;;13.50;99.90;;;;;;4977113;28;20039;-74
2021/05/18 11:31:10;;;;;;;10.55;1.63;;;13.80;99.90;;;;;;4983226;28;20034;-74
2021/05/18 11:33:41;;;;;;;10.77;1.98;;;14.00;99.90;;;;;;4985616;28;20525;-74
2021/05/18 11:36:15;;;;;;;5.88;1.92;;;14.30;99.90;;;;;;4976070;28;20516;-74
2021/05/18 11:38:51;;;;;;;11.30;1.83;;;14.60;99.90;;;;;;4973125;28;20405;-74
2021/05/18 11:41:20;;;;;;;8.30;1.52;;;14.80;99.90;;;;;;4972737;28;20029;-74
2021/05/18 11:43:49;;;;;;;9.40;1.38;;;14.50;99.90;;;;;;4975652;28;20062;-73
2021/05/18 11:46:15;;;;;;;7.43;1.42;;;14.20;99.90;;;;;;4980054;28;20514;-74
2021/05/18 11:48:59;;;;;;;12.05;1.70;;;14.00;99.90;;;;;;4975105;28;20023;-74
2021/05/18 11:51:25;;;;;;;7.88;1.55;;;14.00;99.90;;;;;;4982481;28;20490;-74
2021/05/18 11:53:52;;;;;;;11.25;1.83;;;14.00;99.90;;;;;;4972158;28;20023;-74
2021/05/18 11:56:29;;;;;;;6.40;1.80;;;14.40;99.90;;;;;;4975652;28;20034;-74
2021/05/18 11:59:08;;;;;;;8.90;1.70;;;14.90;99.90;;;;;;4976043;28;20031;-74
2021/05/18 12:01:48;;;;;;;6.93;1.30;;;15.20;99.90;;;;;;4961589;28;20093;-74
2021/05/18 12:04:19;;;;;;;8.85;1.60;;;15.10;99.90;;;;;;4975511;28;20460;-74
2021/05/18 12:07:00;;;;;;;4.85;1.20;;;15.30;99.90;;;;;;4987244;28;20038;-75
2021/05/18 12:09:28;;;;;;;4.78;1.30;;;15.60;99.90;;;;;;4981086;28;20557;-75
2021/05/18 12:12:03;;;;;;;4.30;1.35;;;16.50;99.90;;;;;;4978218;28;20033;-75
2021/05/18 12:14:30;;;;;;;6.10;1.30;;;16.60;99.90;;;;;;4982795;28;20026;-75
2021/05/18 12:16:56;;;;;;;8.85;1.85;;;17.70;99.90;;;;;;4981272;28;20046;-76
2021/05/18 12:19:23;;;;;;;4.32;1.25;;;18.70;99.90;;;;;;4977057;28;20113;-76
2021/05/18 12:21:53;;;;;;;5.47;1.00;;;19.00;98.00;;;;;;4977259;28;20547;-76
2021/05/18 12:24:24;;;;;;;3.53;1.25;;;19.40;97.90;;;;;;4976854;28;20026;-76
2021/05/18 12:26:52;;;;;;;3.33;1.10;;;20.40;95.80;;;;;;4989272;28;20030;-76
2021/05/18 12:29:37;;;;;;;5.53;1.13;;;20.90;93.30;;;;;;4966967;28;20033;-75
2021/05/18 12:32:15;;;;;;;6.22;1.27;;;19.70;92.80;;;;;;4975271;28;20042;-75
2021/05/18 12:34:41;;;;;;;4.22;1.00;;;18.20;95.90;;;;;;4988449;28;20034;-75
2021/05/18 12:37:07;;;;;;;6.70;1.42;;;17.90;96.80;;;;;;4987805;28;20041;-76
2021/05/18 12:39:33;;;;;;;8.27;1.35;;;17.60;97.30;;;;;;4986949;28;20045;-75
2021/05/18 12:42:02;;;;;;;4.65;0.90;;;17.30;97.90;;;;;;4974888;28;20655;-75
2021/05/18 12:44:33;;;;;;;5.45;1.00;;;17.20;95.40;;;;;;4976574;28;20085;-75
2021/05/18 12:47:01;;;;;;;1.85;0.70;;;18.50;95.00;;;;;;4974705;28;20034;-76
2021/05/18 12:49:31;;;;;;;4.47;0.80;;;19.50;93.80;;;;;;4980008;28;20064;-75
2021/05/18 12:52:27;;;;;;;5.50;0.90;;;19.60;91.80;;;;;;4981216;28;20422;-75
2021/05/18 12:54:57;;;;;;;3.22;0.80;;;19.30;91.30;;;;;;4961554;28;20537;-75
2021/05/18 12:57:28;;;;;;;5.10;1.00;;;18.80;91.60;;;;;;4975204;28;20027;-75
2021/05/18 12:59:57;;;;;;;5.85;0.93;;;18.00;93.00;;;;;;4978125;28;20081;-76
2021/05/18 13:02:31;;;;;;;4.85;1.00;;;17.50;92.80;;;;;;4978999;28;20397;-76
2021/05/18 13:05:14;;;;;;;4.03;0.90;;;16.70;95.90;;;;;;4975969;28;20081;-76
2021/05/18 13:07:41;;;;;;;5.65;0.90;;;16.30;95.40;;;;;;4980718;28;20105;-75
2021/05/18 13:10:12;;;;;;;5.28;1.00;;;16.20;95.90;;;;;;4985153;28;20026;-76
2021/05/18 13:12:38;;;;;;;5.65;1.10;;;15.70;96.90;;;;;;4976224;28;20097;-75
2021/05/18 13:15:08;;;;;;;4.47;1.02;;;15.60;98.80;;;;;;4977187;28;20066;-75
2021/05/18 13:17:34;;;;;;;9.73;1.30;;;15.50;96.90;;;;;;4983376;28;20050;-75
2021/05/18 13:20:05;;;;;;;5.10;0.80;;;15.30;97.30;;;;;;4977217;28;20041;-75
2021/05/18 13:22:33;;;;;;;4.28;0.75;;;15.30;97.90;;;;;;4979756;28;20494;-75
2021/05/18 13:27:58;;;;;;;8.00;1.00;;;14.90;96.30;;;;;;4988673;28;20508;-75
2021/05/18 13:30:26;;;;;;;6.13;0.98;;;15.10;97.20;;;;;;4967154;28;20030;-75
2021/05/18 13:32:52;;;;;;;8.20;1.20;;;15.20;96.80;;;;;;4981484;28;20029;-75
2021/05/18 13:35:21;;;;;;;3.75;1.15;;;15.40;98.00;;;;;;4974642;28;20382;-75
2021/05/18 13:37:47;;;;;;;6.50;1.30;;;15.20;97.70;;;;;;4986823;28;20054;-75
2021/05/18 13:40:15;;;;;;;8.10;1.70;;;15.30;98.00;;;;;;4985155;28;20035;-74
2021/05/18 13:42:54;;;;;;;5.18;1.50;;;15.40;97.80;;;;;;4958984;28;20038;-73
2021/05/18 13:45:25;;;;;;;4.10;1.10;;;15.90;97.00;;;;;;4965051;28;20494;-75
2021/05/18 13:47:54;;;;;;;14.60;2.13;;;16.50;95.80;;;;;;4977155;28;20368;-75
2021/05/18 13:50:21;;;;;;;5.57;1.20;;;15.80;97.10;;;;;;4977789;28;20050;-75
2021/05/18 13:52:47;;;;;;;8.25;1.40;;;15.20;97.30;;;;;;4976006;28;20018;-76
2021/05/18 13:55:13;;;;;;;7.18;1.35;;;14.70;98.70;;;;;;4973261;28;20500;-75
2021/05/18 13:57:38;;;;;;;8.23;1.45;;;14.60;99.80;;;;;;4978986;28;20110;-75
2021/05/18 14:00:10;;;;;;;5.70;1.40;;;14.50;98.80;;;;;;4984246;28;20401;-76
2021/05/18 14:02:40;;;;;;;6.95;1.30;;;14.30;99.30;;;;;;4986301;28;20027;-75
2021/05/18 14:05:09;;;;;;;6.82;1.80;;;14.30;98.90;;;;;;4977650;28;20042;-74
2021/05/18 14:10:19;;;;;;;9.50;1.58;;;15.40;97.30;;;;;;4989610;28;20042;-75
2021/05/18 14:12:44;;;;;;;4.35;1.00;;;16.30;96.40;;;;;;4976863;28;20049;-75
2021/05/18 14:15:12;;;;;;;9.43;1.70;;;16.60;95.60;;;;;;4974501;28;20031;-75
2021/05/18 14:17:37;;;;;;;9.60;1.48;;;17.10;93.90;;;;;;4974020;28;20023;-76
2021/05/18 14:20:05;;;;;;;9.55;1.30;;;18.90;91.90;;;;;;4987331;28;20027;-76
2021/05/18 14:22:31;;;;;;;7.32;1.70;;;18.70;91.60;;;;;;4990493;28;20101;-75
2021/05/18 14:25:06;;;;;;;8.07;1.40;;;18.30;91.50;;;;;;4974804;28;20129;-75
2021/05/18 14:27:43;;;;;;;9.10;1.58;;;17.20;93.50;;;;;;4979168;28;20101;-76
2021/05/18 14:30:10;;;;;;;6.18;1.65;;;18.10;93.20;;;;;;4960368;28;20045;-75
2021/05/18 14:32:38;;;;;;;6.75;1.60;;;19.30;90.30;;;;;;4972454;28;20038;-76
2021/05/18 14:35:05;;;;;;;3.65;1.10;;;20.20;90.40;;;;;;4987876;28;20097;-75
2021/05/18 14:37:31;;;;;;;4.07;1.20;;;21.40;81.50;;;;;;4974873;28;20040;-75
2021/05/18 14:45:12;;;;;;;8.18;1.40;;;23.00;78.20;;;;;;4970957;28;20054;-75
2021/05/18 14:55:51;;;;;;;7.55;1.40;;;21.90;79.40;;;;;;4971814;28;20070;-76
2021/05/18 14:58:17;;;;;;;3.63;0.95;;;22.60;73.40;;;;;;4971045;28;20434;-75
2021/05/18 15:00:43;;;;;;;4.80;1.00;;;23.40;72.20;;;;;;4980112;28;20386;-75
2021/05/18 15:03:09;;;;;;;4.97;1.30;;;23.70;73.00;;;;;;4974579;28;20037;-76
2021/05/18 15:05:36;;;;;;;2.63;1.10;;;23.40;71.50;;;;;;4978016;28;20030;-75
2021/05/18 15:08:02;;;;;;;5.70;1.10;;;23.50;71.40;;;;;;4974174;28;20042;-75
2021/05/18 15:10:28;;;;;;;3.47;1.27;;;23.70;70.50;;;;;;4972568;28;20394;-76
2021/05/18 15:12:54;;;;;;;5.03;1.08;;;23.00;68.50;;;;;;4975789;28;20046;-75
2021/05/18 15:15:20;;;;;;;3.03;1.00;;;20.90;76.10;;;;;;4987688;28;20046;-75
2021/05/18 15:17:46;;;;;;;5.03;1.20;;;21.10;75.20;;;;;;4979545;28;20390;-75
2021/05/18 15:20:13;;;;;;;4.55;0.93;;;21.00;74.40;;;;;;4983004;28;20035;-75
2021/05/18 15:22:39;;;;;;;2.35;0.90;;;21.40;77.00;;;;;;4975571;28;20030;-75
2021/05/18 15:25:06;;;;;;;4.53;1.10;;;22.10;73.80;;;;;;4974152;28;20390;-75
2021/05/18 15:27:31;;;;;;;5.85;1.10;;;22.40;72.30;;;;;;4972123;28;20042;-75
2021/05/18 15:29:57;;;;;;;2.33;0.98;;;22.40;70.60;;;;;;4963726;28;20030;-75
2021/05/18 15:32:23;;;;;;;7.38;1.27;;;22.40;69.20;;;;;;4986684;28;20089;-75
2021/05/18 15:34:48;;;;;;;4.13;0.82;;;21.60;71.90;;;;;;4975903;28;20027;-75
2021/05/18 15:37:15;;;;;;;3.05;0.80;;;21.80;72.90;;;;;;4979972;28;20061;-76
2021/05/18 15:39:41;;;;;;;3.55;0.90;;;21.10;68.80;;;;;;4989158;28;20494;-75
2021/05/18 15:42:07;;;;;;;3.40;1.10;;;20.80;71.70;;;;;;4979443;28;20035;-75
2021/05/18 15:44:33;;;;;;;3.35;0.85;;;19.80;75.60;;;;;;4976447;28;20035;-75
2021/05/18 15:46:59;;;;;;;6.10;1.00;;;18.00;74.70;;;;;;4979513;28;20034;-75
2021/05/18 15:49:28;;;;;;;4.45;0.80;;;17.40;83.00;;;;;;4983790;28;20406;-75
2021/05/18 15:51:54;;;;;;;4.38;0.82;;;17.40;81.30;;;;;;4981338;28;20390;-75
2021/05/18 15:54:19;;;;;;;2.03;0.90;;;17.30;88.00;;;;;;4980563;28;20077;-75
2021/05/18 15:56:45;;;;;;;8.45;0.95;;;17.30;88.30;;;;;;4967710;28;20474;-74
2021/05/18 15:59:12;;;;;;;4.53;0.93;;;18.00;84.60;;;;;;4983810;28;20026;-76
2021/05/18 16:01:38;;;;;;;6.13;0.93;;;18.40;85.60;;;;;;4982668;28;20110;-75
2021/05/18 16:04:08;;;;;;;4.55;0.90;;;18.40;85.30;;;;;;4986123;28;20031;-74
2021/05/18 16:06:39;;;;;;;4.30;0.73;;;18.60;85.10;;;;;;4979219;28;20057;-75
2021/05/18 16:09:05;;;;;;;1.83;0.60;;;18.50;82.90;;;;;;4983168;28;20030;-77
2021/05/18 16:11:31;;;;;;;3.13;1.00;;;18.20;85.90;;;;;;4988389;28;20030;-76
2021/05/18 16:13:58;;;;;;;6.45;1.08;;;17.80;88.00;;;;;;4991317;28;20432;-77
2021/05/18 16:16:24;;;;;;;5.07;0.88;;;18.10;86.00;;;;;;4967995;28;20417;-77
2021/05/18 16:18:50;;;;;;;5.43;0.75;;;18.10;84.20;;;;;;4962068;28;20033;-75
2021/05/18 16:21:18;;;;;;;3.20;0.75;;;18.10;85.60;;;;;;4984760;28;20474;-78
2021/05/18 16:23:49;;;;;;;3.70;0.80;;;17.70;86.30;;;;;;4982387;28;20027;-78
2021/05/18 16:26:16;;;;;;;7.03;1.00;;;17.80;85.60;;;;;;4957113;29;20082;-78
2021/05/18 16:28:42;;;;;;;4.25;1.00;;;17.90;86.40;;;;;;4988982;28;20066;-77
2021/05/18 16:31:08;;;;;;;3.30;0.70;;;17.70;86.30;;;;;;4959069;28;20022;-78
2021/05/18 16:33:38;;;;;;;5.05;0.77;;;17.80;85.90;;;;;;4976465;28;20023;-77
2021/05/18 16:36:05;;;;;;;4.82;0.82;;;17.80;87.70;;;;;;4975591;28;20449;-78
2021/05/18 16:38:32;;;;;;;4.15;0.80;;;17.90;86.40;;;;;;4943721;29;20521;-77
2021/05/18 16:40:58;;;;;;;8.02;0.90;;;17.80;86.40;;;;;;4937844;29;20410;-77
2021/05/18 16:43:26;;;;;;;4.90;1.00;;;17.70;86.90;;;;;;4947084;29;20034;-77
2021/05/18 16:45:53;;;;;;;10.45;0.98;;;17.70;89.70;;;;;;4950702;29;20475;-78
2021/05/18 16:48:19;;;;;;;4.32;0.70;;;17.70;87.80;;;;;;4937691;29;20410;-77
2021/05/18 16:50:46;;;;;;;3.50;0.82;;;17.60;89.00;;;;;;4953070;28;20067;-77
2021/05/18 16:53:12;;;;;;;3.30;0.60;;;17.40;89.30;;;;;;4953384;28;20369;-77
2021/05/18 16:55:38;;;;;;;5.18;1.00;;;17.20;90.70;;;;;;4951261;29;20031;-75
2021/05/18 16:58:04;;;;;;;4.95;1.30;;;17.10;88.90;;;;;;4949129;29;20025;-77
2021/05/18 17:00:31;;;;;;;6.53;0.68;;;16.90;89.60;;;;;;4936357;29;20051;-78
2021/05/18 17:02:56;;;;;;;4.35;0.60;;;16.70;90.10;;;;;;4961454;28;20023;-77
2021/05/18 17:05:26;;;;;;;6.60;1.00;;;16.50;90.90;;;;;;4936915;29;20039;-77
2021/05/18 17:07:55;;;;;;;4.35;0.90;;;16.50;90.50;;;;;;4950249;29;20098;-77
2021/05/18 17:10:23;;;;;;;7.43;1.05;;;16.50;90.80;;;;;;4937329;29;20638;-77
2021/05/18 17:12:50;;;;;;;6.30;0.93;;;16.40;90.70;;;;;;4936782;29;20024;-78
2021/05/18 17:15:16;;;;;;;8.20;1.02;;;16.30;90.90;;;;;;4946761;29;20037;-77
2021/05/18 17:17:42;;;;;;;5.60;0.75;;;16.40;91.20;;;;;;4952039;29;20051;-77
2021/05/18 17:20:09;;;;;;;4.38;0.70;;;16.50;90.60;;;;;;4937216;29;20517;-74
2021/05/18 17:22:35;;;;;;;3.67;0.60;;;16.30;90.30;;;;;;4936999;29;20027;-78
2021/05/18 17:25:00;;;;;;;2.70;0.80;;;16.30;90.80;;;;;;4951558;29;20406;-77
2021/05/18 17:27:26;;;;;;;2.30;0.65;;;16.20;91.20;;;;;;4937028;29;20039;-77
2021/05/18 17:29:52;;;;;;;4.78;0.63;;;15.80;90.30;;;;;;4948880;29;20023;-78
2021/05/18 17:32:17;;;;;;;4.88;0.80;;;15.40;91.20;;;;;;4937845;29;20102;-77
2021/05/18 17:34:43;;;;;;;6.30;0.98;;;15.50;92.20;;;;;;4935505;29;20031;-77
2021/05/18 17:37:09;;;;;;;2.40;0.60;;;15.60;90.70;;;;;;4939291;28;20031;-77
2021/05/18 17:39:37;;;;;;;4.53;0.63;;;15.50;90.90;;;;;;4977926;28;20033;-77
2021/05/18 17:42:04;;;;;;;5.63;1.00;;;15.30;92.10;;;;;;4983895;28;20026;-78
2021/05/18 17:44:30;;;;;;;3.38;0.60;;;15.20;92.40;;;;;;4991502;28;20035;-78
2021/05/18 17:46:56;;;;;;;8.25;0.90;;;15.20;92.60;;;;;;4975123;28;20449;-74
2021/05/18 17:49:23;;;;;;;2.65;0.70;;;15.40;93.20;;;;;;4988223;28;20526;-78